createdAt,value
2023-02-28T00:02:00.860Z,4.25
2023-02-28T00:06:04.849Z,4.29
2023-02-28T00:10:09.022Z,4.36
2023-02-28T00:14:11.056Z,4.34
2023-02-28T00:18:13.366Z,4.40
2023-02-28T00:22:17.649Z,4.33
2023-02-28T00:26:21.792Z,4.42
2023-02-28T00:30:25.457Z,4.47
2023-02-28T00:34:27.908Z,4.44
2023-02-28T00:38:30.112Z,4.47
2023-02-28T00:42:32.249Z,4.48
2023-02-28T00:46:34.754Z,4.49
2023-02-28T00:50:36.936Z,4.47
2023-02-28T00:54:39.430Z,4.49
2023-02-28T00:58:43.755Z,4.51
2023-02-28T01:02:45.825Z,4.49
2023-02-28T01:06:47.965Z,4.51
2023-02-28T01:10:50.392Z,4.41
2023-02-28T01:14:53.170Z,4.45
2023-02-28T01:18:58.015Z,4.45
2023-02-28T01:23:00.132Z,4.57
2023-02-28T01:27:03.515Z,4.55
2023-02-28T01:31:06.634Z,4.58
2023-02-28T01:35:09.205Z,4.61
2023-02-28T01:39:11.365Z,4.55
2023-02-28T01:43:28.583Z,4.55
2023-02-28T01:47:35.817Z,4.56
2023-02-28T01:51:47.486Z,4.65
2023-02-28T01:55:53.903Z,4.52
2023-02-28T02:00:05.752Z,4.54
2023-02-28T02:04:18.349Z,4.64
2023-02-28T02:08:31.405Z,4.65
2023-02-28T02:12:57.741Z,4.68
2023-02-28T02:17:02.740Z,4.65
2023-02-28T02:21:10.963Z,4.63
2023-02-28T02:25:28.552Z,4.70
2023-02-28T02:29:55.218Z,4.60
2023-02-28T02:34:35.076Z,4.64
2023-02-28T02:38:56.724Z,4.51
2023-02-28T02:43:15.597Z,4.38
2023-02-28T02:47:21.950Z,4.44
2023-02-28T02:51:25.991Z,4.39
2023-02-28T02:55:29.199Z,4.32
2023-02-28T02:59:31.784Z,4.22
2023-02-28T03:03:35.330Z,4.19
2023-02-28T03:07:37.908Z,4.19
2023-02-28T03:11:45.375Z,4.16
2023-02-28T03:15:58.948Z,4.24
2023-02-28T03:20:19.598Z,4.17
2023-02-28T03:24:31.018Z,4.24
2023-02-28T03:28:40.269Z,4.22
2023-02-28T03:32:54.028Z,4.13
2023-02-28T03:37:01.715Z,4.16
2023-02-28T03:41:18.477Z,4.10
2023-02-28T03:45:29.133Z,4.15
2023-02-28T03:49:44.411Z,4.14
2023-02-28T03:53:52.609Z,4.23
2023-02-28T03:58:07.232Z,4.26
2023-02-28T04:02:09.765Z,4.34
2023-02-28T04:06:21.244Z,4.26
2023-02-28T04:10:23.329Z,4.25
2023-02-28T04:14:25.816Z,4.29
2023-02-28T04:18:27.919Z,4.31
2023-02-28T04:22:29.939Z,4.33
2023-02-28T04:26:34.302Z,4.31
2023-02-28T04:30:36.866Z,4.22
2023-02-28T04:34:39.391Z,4.23
2023-02-28T04:38:42.168Z,4.17
2023-02-28T04:42:44.196Z,4.22
2023-02-28T04:46:46.194Z,4.23
2023-02-28T04:50:48.247Z,4.20
2023-02-28T04:54:50.872Z,4.25
2023-02-28T04:58:54.362Z,4.28
2023-02-28T05:02:56.508Z,4.34
2023-02-28T05:06:58.718Z,4.45
2023-02-28T05:11:04.141Z,4.48
2023-02-28T05:15:06.755Z,4.54
2023-02-28T05:19:09.146Z,4.52
2023-02-28T05:23:15.876Z,4.50
2023-02-28T05:27:17.987Z,4.45
2023-02-28T05:31:20.157Z,4.57
2023-02-28T05:35:22.539Z,4.59
2023-02-28T05:39:24.818Z,4.70
2023-02-28T05:43:27.214Z,4.73
2023-02-28T05:47:29.361Z,4.77
2023-02-28T05:51:31.786Z,4.71
2023-02-28T05:55:34.368Z,4.74
2023-02-28T05:59:41.045Z,4.77
2023-02-28T06:03:43.315Z,4.79
2023-02-28T06:07:45.667Z,4.78
2023-02-28T06:11:47.796Z,4.81
2023-02-28T06:15:49.892Z,4.80
2023-02-28T06:19:51.969Z,4.79
2023-02-28T06:23:54.270Z,4.85
2023-02-28T06:27:56.837Z,4.89
2023-02-28T06:31:59.184Z,4.99
2023-02-28T06:36:01.530Z,5.02
2023-02-28T06:40:04.147Z,5.07
2023-02-28T06:44:10.272Z,5.16
2023-02-28T06:48:12.480Z,5.27
2023-02-28T06:52:15.522Z,5.35
2023-02-28T06:56:19.121Z,5.42
2023-02-28T07:00:22.205Z,5.59
2023-02-28T07:04:25.140Z,5.71
2023-02-28T07:08:28.080Z,5.86
2023-02-28T07:12:30.439Z,5.92
2023-02-28T07:16:32.645Z,6.07
2023-02-28T07:20:34.742Z,6.03
2023-02-28T07:24:36.889Z,6.15
2023-02-28T07:28:39.351Z,6.15
2023-02-28T07:32:43.901Z,6.26
2023-02-28T07:36:47.207Z,6.03
2023-02-28T07:40:49.376Z,6.17
2023-02-28T07:44:52.745Z,6.23
2023-02-28T07:48:56.206Z,6.36
2023-02-28T07:53:01.766Z,6.45
2023-02-28T07:57:04.045Z,6.59
2023-02-28T08:01:10.713Z,6.69
2023-02-28T08:05:15.304Z,6.65
2023-02-28T08:09:17.417Z,6.86
2023-02-28T08:13:19.508Z,6.86
2023-02-28T08:17:21.581Z,7.05
2023-02-28T08:21:23.685Z,7.18
2023-02-28T08:25:25.921Z,7.10
2023-02-28T08:29:28.174Z,6.94
2023-02-28T08:33:30.290Z,7.10
2023-02-28T08:37:32.528Z,7.53
2023-02-28T08:41:34.876Z,7.78
2023-02-28T08:45:37.223Z,8.12
2023-02-28T08:49:39.538Z,8.15
2023-02-28T08:53:42.062Z,8.03
2023-02-28T08:57:44.442Z,8.26
2023-02-28T09:01:46.605Z,8.44
2023-02-28T09:05:59.449Z,8.59
2023-02-28T09:10:01.688Z,8.91
2023-02-28T09:14:04.539Z,8.63
2023-02-28T09:18:06.876Z,8.95
2023-02-28T09:22:09.012Z,9.33
2023-02-28T09:26:23.747Z,9.75
2023-02-28T09:30:25.917Z,9.74
2023-02-28T09:34:28.706Z,9.68
2023-02-28T09:38:31.833Z,9.26
2023-02-28T09:42:35.312Z,9.65
2023-02-28T09:46:46.030Z,9.83
2023-02-28T09:50:53.540Z,9.78
2023-02-28T09:54:56.095Z,9.88
2023-02-28T09:59:13.702Z,9.46
2023-02-28T10:03:43.540Z,9.73
2023-02-28T10:08:02.784Z,10.06
2023-02-28T10:12:07.542Z,9.57
2023-02-28T10:16:15.593Z,9.76
2023-02-28T10:20:23.931Z,9.63
2023-02-28T10:24:54.854Z,9.75
2023-02-28T10:28:57.172Z,9.52
2023-02-28T10:32:59.510Z,9.52
2023-02-28T10:37:08.829Z,9.62
2023-02-28T10:41:35.866Z,9.56
2023-02-28T10:45:38.264Z,9.48
2023-02-28T10:49:48.516Z,9.12
2023-02-28T10:54:02.954Z,9.22
2023-02-28T10:58:21.361Z,9.20
2023-02-28T11:02:43.960Z,9.55
2023-02-28T11:06:47.257Z,9.79
2023-02-28T11:10:58.927Z,9.38
2023-02-28T11:15:23.728Z,9.38
2023-02-28T11:19:36.053Z,8.71
2023-02-28T11:23:42.385Z,9.27
2023-02-28T11:27:48.233Z,9.08
2023-02-28T11:32:15.092Z,9.18
2023-02-28T11:36:35.683Z,9.18
2023-02-28T11:40:48.880Z,9.46
2023-02-28T11:45:06.472Z,9.29
2023-02-28T11:49:25.137Z,8.80
2023-02-28T11:53:56.449Z,8.89
2023-02-28T11:58:18.078Z,8.85
2023-02-28T12:02:27.089Z,8.73
2023-02-28T12:06:48.104Z,8.86
2023-02-28T12:11:28.948Z,8.56
2023-02-28T12:16:03.819Z,8.83
2023-02-28T12:20:05.907Z,9.20
2023-02-28T12:24:45.202Z,8.98
2023-02-28T12:28:52.034Z,9.16
2023-02-28T12:32:59.191Z,8.63
2023-02-28T12:37:08.804Z,8.29
2023-02-28T12:41:16.937Z,8.34
2023-02-28T12:45:25.740Z,8.59
2023-02-28T12:49:50.301Z,8.50
2023-02-28T12:54:06.320Z,8.36
2023-02-28T12:58:21.887Z,8.27
2023-02-28T13:02:53.539Z,8.42
2023-02-28T13:07:32.652Z,8.50
2023-02-28T13:11:35.508Z,8.51
2023-02-28T13:15:41.686Z,8.55
2023-02-28T13:19:52.937Z,8.19
2023-02-28T13:24:00.833Z,8.11
2023-02-28T13:28:05.344Z,7.99
2023-02-28T13:32:07.738Z,8.05
2023-02-28T13:36:15.473Z,7.88
2023-02-28T13:40:40.339Z,7.76
2023-02-28T13:45:04.298Z,7.50
2023-02-28T13:49:26.126Z,7.63
2023-02-28T13:53:44.554Z,7.66
2023-02-28T13:58:04.137Z,7.63
2023-02-28T14:02:42.235Z,7.64
2023-02-28T14:06:51.375Z,7.50
2023-02-28T14:11:08.294Z,7.47
2023-02-28T14:15:39.313Z,7.40
2023-02-28T14:19:47.398Z,7.24
2023-02-28T14:24:26.530Z,7.42
2023-02-28T14:29:11.087Z,7.59
2023-02-28T14:33:23.209Z,7.69
2023-02-28T14:37:29.909Z,7.79
2023-02-28T14:41:39.672Z,7.71
2023-02-28T14:45:41.808Z,7.62
2023-02-28T14:49:47.745Z,7.84
2023-02-28T14:53:54.214Z,7.75
2023-02-28T14:58:01.425Z,7.73
2023-02-28T15:02:25.182Z,7.64
2023-02-28T15:06:28.953Z,7.63
2023-02-28T15:10:34.391Z,7.50
2023-02-28T15:14:39.391Z,7.63
2023-02-28T15:18:47.327Z,7.71
2023-02-28T15:22:52.669Z,7.60
2023-02-28T15:26:59.457Z,7.57
2023-02-28T15:31:04.859Z,7.57
2023-02-28T15:35:25.883Z,7.62
2023-02-28T15:39:30.456Z,7.37
2023-02-28T15:43:32.680Z,7.15
2023-02-28T15:47:34.957Z,7.05
2023-02-28T15:51:40.058Z,7.17
2023-02-28T15:55:42.852Z,7.00
2023-02-28T15:59:52.974Z,6.97
2023-02-28T16:03:58.739Z,6.95
2023-02-28T16:08:10.399Z,6.99
2023-02-28T16:12:14.646Z,7.12
2023-02-28T16:16:23.723Z,7.08
2023-02-28T16:20:31.506Z,7.03
2023-02-28T16:24:33.749Z,6.99
2023-02-28T16:28:39.616Z,6.81
2023-02-28T16:32:41.700Z,6.79
2023-02-28T16:36:43.835Z,6.74
2023-02-28T16:40:46.556Z,6.73
2023-02-28T16:44:49.685Z,6.72
2023-02-28T16:48:52.566Z,6.62
2023-02-28T16:52:55.784Z,6.48
2023-02-28T16:56:58.122Z,6.48
2023-02-28T17:01:00.347Z,6.33
2023-02-28T17:05:02.476Z,6.29
2023-02-28T17:09:05.058Z,6.31
2023-02-28T17:13:14.884Z,6.33
2023-02-28T17:17:22.946Z,6.23
2023-02-28T17:21:25.147Z,6.27
2023-02-28T17:25:27.501Z,6.30
2023-02-28T17:29:30.336Z,6.27
2023-02-28T17:33:32.419Z,6.24
2023-02-28T17:37:34.804Z,6.19
2023-02-28T17:41:36.940Z,6.08
2023-02-28T17:45:39.318Z,6.14
2023-02-28T17:49:41.822Z,6.12
2023-02-28T17:53:44.482Z,6.06
2023-02-28T17:57:47.351Z,6.06
2023-02-28T18:01:49.520Z,6.06
2023-02-28T18:05:52.328Z,6.08
2023-02-28T18:09:54.653Z,6.06
2023-02-28T18:13:57.946Z,6.04
2023-02-28T18:18:00.493Z,6.11
2023-02-28T18:22:02.925Z,6.15
2023-02-28T18:26:09.003Z,6.11
2023-02-28T18:30:11.788Z,6.09
2023-02-28T18:34:14.036Z,6.08
2023-02-28T18:38:22.570Z,6.15
2023-02-28T18:42:24.731Z,6.15
2023-02-28T18:46:27.038Z,6.20
2023-02-28T18:50:29.771Z,6.22
2023-02-28T18:54:32.105Z,6.21
2023-02-28T18:58:34.788Z,6.12
2023-02-28T19:02:37.456Z,6.18
2023-02-28T19:06:39.667Z,6.15
2023-02-28T19:10:41.720Z,6.18
2023-02-28T19:14:44.241Z,6.25
2023-02-28T19:18:46.412Z,6.26
2023-02-28T19:22:48.744Z,6.33
2023-02-28T19:26:50.861Z,6.40
2023-02-28T19:30:53.455Z,6.27
2023-02-28T19:34:55.624Z,6.32
2023-02-28T19:38:57.921Z,6.31
2023-02-28T19:43:02.751Z,6.37
2023-02-28T19:47:06.268Z,6.36
2023-02-28T19:51:14.101Z,6.29
2023-02-28T19:55:17.945Z,6.40
2023-02-28T19:59:25.999Z,6.44
2023-02-28T20:03:33.023Z,6.52
2023-02-28T20:07:35.905Z,6.42
2023-02-28T20:12:01.540Z,6.47
2023-02-28T20:16:09.676Z,6.39
2023-02-28T20:20:12.501Z,6.47
2023-02-28T20:24:16.677Z,6.46
2023-02-28T20:28:19.731Z,6.43
2023-02-28T20:32:22.022Z,6.49
2023-02-28T20:36:24.407Z,6.48
2023-02-28T20:40:26.553Z,6.47
2023-02-28T20:44:30.035Z,6.45
2023-02-28T20:48:33.465Z,6.47
2023-02-28T20:52:35.988Z,6.46
2023-02-28T20:56:38.562Z,6.40
2023-02-28T21:00:40.774Z,6.39
2023-02-28T21:04:43.371Z,6.40
2023-02-28T21:08:46.162Z,6.31
2023-02-28T21:12:50.683Z,6.38
2023-02-28T21:16:53.208Z,6.35
2023-02-28T21:21:04.236Z,6.34
2023-02-28T21:25:10.160Z,6.38
2023-02-28T21:29:13.602Z,6.44
2023-02-28T21:33:15.745Z,6.45
2023-02-28T21:37:18.378Z,6.34
2023-02-28T21:41:22.490Z,6.27
2023-02-28T21:45:24.916Z,6.32
2023-02-28T21:49:27.201Z,6.34
2023-02-28T21:53:31.545Z,6.36
2023-02-28T21:57:36.040Z,6.32
2023-02-28T22:01:44.262Z,6.35
2023-02-28T22:05:46.573Z,6.35
2023-02-28T22:09:48.876Z,6.32
2023-02-28T22:13:56.230Z,6.26
2023-02-28T22:17:59.209Z,6.13
2023-02-28T22:22:01.381Z,5.70
2023-02-28T22:26:09.236Z,5.45
2023-02-28T22:30:11.961Z,5.38
2023-02-28T22:34:14.495Z,5.39
2023-02-28T22:38:16.926Z,5.45
2023-02-28T22:42:18.998Z,5.46
2023-02-28T22:46:22.926Z,5.65
2023-02-28T22:50:25.393Z,5.72
2023-02-28T22:54:27.598Z,5.77
2023-02-28T22:58:30.114Z,5.82
2023-02-28T23:02:32.460Z,5.76
2023-02-28T23:06:43.829Z,5.75
2023-02-28T23:10:45.916Z,5.57
2023-02-28T23:14:47.970Z,5.46
2023-02-28T23:18:50.216Z,5.17
2023-02-28T23:22:52.517Z,5.00
2023-02-28T23:26:57.502Z,4.79
2023-02-28T23:31:06.278Z,4.78
2023-02-28T23:35:09.889Z,4.66
2023-02-28T23:39:16.440Z,4.61
2023-02-28T23:43:19.761Z,4.72
2023-02-28T23:47:22.898Z,4.63
2023-02-28T23:51:25.495Z,4.59
2023-02-28T23:55:27.764Z,4.59
2023-02-28T23:59:30.042Z,4.57
